Continental Highway — H9LY — position and weather

sailwx.info

Track history (hours):
 
Tides and Currents Weather Stations Pressure Air Temp Water Temp Dewpoint Dewpoint Depression Visibility Wind Speed Wind Dir Waves Ship Positions

Continental Highway

Last reported at 2015-May-06 06:08 UTC. Time now 2015-May-28 16:09 UTC.
Position N 38°56' W 071°51'.
Warning: this ship's position is 22 days out of date.

Length 199.9 m; beam 32.2 m.

Type: Cargo ship. MMSI: 351223000.

Date/timePositionNaut miles runAvg speedWind from/ knotsBaromVisibWave heightAir tempDewpointWater temp
2015-May-06 06:08N 38°56' W 071°51'1017.3
2015-May-06 05:33N 39°04' W 071°60'1817.7
2015-May-06 04:31N 39°16' W 072°17'1717.5
2015-May-06 03:32N 39°28' W 072°33'1717.4
2015-May-06 02:33N 39°39' W 072°50'1717.2
2015-May-06 01:33N 39°51' W 073°06'1716.9
2015-May-06 00:33N 40°02' W 073°22'1716.6
2015-May-05 23:31N 40°15' W 073°37'1515.8
2015-May-05 22:33N 40°27' W 073°49'1312.6
2015-May-05 21:33N 40°35' W 074°02'7 6.7
2015-May-05 20:34N 40°39' W 074°09'3 2.4
2015-May-05 19:31N 40°41' W 074°08'0 0.0
2015-May-05 18:31N 40°41' W 074°08'0 0.0
2015-May-05 17:31N 40°41' W 074°08'0 0.0
2015-May-05 16:31N 40°41' W 074°08'0 0.0
2015-May-05 15:31N 40°41' W 074°08'0 0.0
2015-May-05 14:31N 40°41' W 074°08'0 0.0
2015-May-05 13:31N 40°41' W 074°08'0 0.0
2015-May-05 12:31N 40°41' W 074°08'0 0.0
2015-May-05 11:31N 40°41' W 074°08'0 0.0
2015-May-05 10:31N 40°41' W 074°08'0 0.0
2015-May-05 09:31N 40°41' W 074°08'0 0.0
2015-May-05 08:31N 40°41' W 074°08'0 0.0
2015-May-05 07:31N 40°41' W 074°08'0 0.0
2015-May-05 06:28N 40°41' W 074°08'0 0.0
2015-May-05 05:25N 40°41' W 074°08'0 0.0
2015-May-05 04:28N 40°41' W 074°08'0 0.0
2015-May-05 03:25N 40°41' W 074°08'0 0.0
2015-May-05 02:31N 40°41' W 074°08'0 0.0
2015-May-05 01:28N 40°41' W 074°08'1 0.9
2015-May-05 00:33N 40°41' W 074°08'4 4.3
2015-May-04 23:33N 40°38' W 074°03'1313.5
2015-May-04 22:33N 40°28' W 073°52'9 9.1
2015-May-04 21:33N 40°20' W 073°46'1716.7
2015-May-04 20:33N 40°03' W 073°43'1716.8
2015-May-04 19:33N 39°47' W 073°40'1716.6
2015-May-04 18:33N 39°30' W 073°43'1916.6
2015-May-04 17:25N 39°11' W 073°46'1416.5
2015-May-04 16:33N 38°57' W 073°48'3616.6
2015-May-04 14:23N 38°22' W 073°55'3014.1
2015-May-04 12:15N 37°52' W 074°03'1116.4
2015-May-04 11:33N 37°41' W 074°05'7915.8
2015-May-04 06:34N 36°23' W 074°20'1616.3
2015-May-04 05:33N 36°07' W 074°23'1917.4
2015-May-04 04:26N 35°48' W 074°27'10918.5
2015-May-03 22:32N 34°27' W 075°58'1717.1
2015-May-03 21:33N 34°16' W 076°13'1616.5
2015-May-03 20:33N 34°04' W 076°27'21616.5
2015-May-03 07:26N 31°34' W 079°32'1415.8
2015-May-03 06:32N 31°24' W 079°43'286 5.7
2015-May-01 04:07N 26°38' W 079°24'1417.8
2015-May-01 03:19N 26°23' W 079°25'1417.8
2015-May-01 02:33N 26°10' W 079°25'1817.9
2015-May-01 01:33N 25°52' W 079°26'  
Track history (hours):
 
Tides and Currents Weather Stations Pressure Air Temp Water Temp Dewpoint Dewpoint Depression Visibility Wind Speed Wind Dir Waves Ship Positions

Continental Highway

Last reported at 2015-May-06 06:08 UTC. Time now 2015-May-28 16:09 UTC.
Position N 38°56' W 071°51'.
Warning: this ship's position is 22 days out of date.

Length 199.9 m; beam 32.2 m.

Type: Cargo ship. MMSI: 351223000.

Date/timePositionNaut miles runAvg speedWind from/ knotsBaromVisibWave heightAir tempDewpointWater temp
2015-May-06 06:08N 38°56' W 071°51'1017.3
2015-May-06 05:33N 39°04' W 071°60'1817.7
2015-May-06 04:31N 39°16' W 072°17'1717.5
2015-May-06 03:32N 39°28' W 072°33'1717.4
2015-May-06 02:33N 39°39' W 072°50'1717.2
2015-May-06 01:33N 39°51' W 073°06'1716.9
2015-May-06 00:33N 40°02' W 073°22'1716.6
2015-May-05 23:31N 40°15' W 073°37'1515.8
2015-May-05 22:33N 40°27' W 073°49'1312.6
2015-May-05 21:33N 40°35' W 074°02'7 6.7
2015-May-05 20:34N 40°39' W 074°09'3 2.4
2015-May-05 19:31N 40°41' W 074°08'0 0.0
2015-May-05 18:31N 40°41' W 074°08'0 0.0
2015-May-05 17:31N 40°41' W 074°08'0 0.0
2015-May-05 16:31N 40°41' W 074°08'0 0.0
2015-May-05 15:31N 40°41' W 074°08'0 0.0
2015-May-05 14:31N 40°41' W 074°08'0 0.0
2015-May-05 13:31N 40°41' W 074°08'0 0.0
2015-May-05 12:31N 40°41' W 074°08'0 0.0
2015-May-05 11:31N 40°41' W 074°08'0 0.0
2015-May-05 10:31N 40°41' W 074°08'0 0.0
2015-May-05 09:31N 40°41' W 074°08'0 0.0
2015-May-05 08:31N 40°41' W 074°08'0 0.0
2015-May-05 07:31N 40°41' W 074°08'0 0.0
2015-May-05 06:28N 40°41' W 074°08'0 0.0
2015-May-05 05:25N 40°41' W 074°08'0 0.0
2015-May-05 04:28N 40°41' W 074°08'0 0.0
2015-May-05 03:25N 40°41' W 074°08'0 0.0
2015-May-05 02:31N 40°41' W 074°08'0 0.0
2015-May-05 01:28N 40°41' W 074°08'1 0.9
2015-May-05 00:33N 40°41' W 074°08'4 4.3
2015-May-04 23:33N 40°38' W 074°03'1313.5
2015-May-04 22:33N 40°28' W 073°52'9 9.1
2015-May-04 21:33N 40°20' W 073°46'1716.7
2015-May-04 20:33N 40°03' W 073°43'1716.8
2015-May-04 19:33N 39°47' W 073°40'1716.6
2015-May-04 18:33N 39°30' W 073°43'1916.6
2015-May-04 17:25N 39°11' W 073°46'1416.5
2015-May-04 16:33N 38°57' W 073°48'3616.6
2015-May-04 14:23N 38°22' W 073°55'3014.1
2015-May-04 12:15N 37°52' W 074°03'1116.4
2015-May-04 11:33N 37°41' W 074°05'7915.8
2015-May-04 06:34N 36°23' W 074°20'1616.3
2015-May-04 05:33N 36°07' W 074°23'1917.4
2015-May-04 04:26N 35°48' W 074°27'10918.5
2015-May-03 22:32N 34°27' W 075°58'1717.1
2015-May-03 21:33N 34°16' W 076°13'1616.5
2015-May-03 20:33N 34°04' W 076°27'21616.5
2015-May-03 07:26N 31°34' W 079°32'1415.8
2015-May-03 06:32N 31°24' W 079°43'286 5.7
2015-May-01 04:07N 26°38' W 079°24'1417.8
2015-May-01 03:19N 26°23' W 079°25'1417.8
2015-May-01 02:33N 26°10' W 079°25'1817.9
2015-May-01 01:33N 25°52' W 079°26'  

Dump ship's entire track history